Malin, Oregon
Current Conditions -  °F | °C
As of 10:53 AM on Thursday 23 Oct 2014 (Local Time) from KLMT Reporting Station
Light Rain Light Rain  
Wind Chill: 43°   Ceiling: 5000
Heat Index: 49°   Visibility: 10mi
Dew Point: 45°   Wind: 16mph
Humidity: 86%   Direction: 160°SSE
Pressure: 30"   Gusts: NA
Location:  42.01°N, 121.41°W
Report Text: KLMT 231753Z 16014KT 10SM -RA BKN050 OVC060 09/07 A3000 RMK AO2 PRESFR SLP146 P0004 60014 T00940072 10100 20089 50008
Loading
Personal Weather Stations






























Interactive Weather Map
Tropical Storm Tracking
New forecast layout! Learn more

10-Day Weather Forecast

Advertisements
Track Severe Weather on mobile